Time;durP1;ratioP1;P1;durP2;ratioP2;P2;SDS_P1;SDS_P2;PMS_P1;PMS_P2;Temp;Humidity;BMP_temperature;BMP_pressure;BME280_temperature;BME280_humidity;BME280_pressure;Samples;Min_cycle;Max_cycle;Signal;HPM_P1;HPM_P2
2022/05/29 00:00:41;;;;;;;12.18;4.90;;;;;;;;;;8461560;28;20032;-94
2022/05/29 00:04:43;;;;;;;12.00;5.18;;;;;;;;;;8452965;28;20040;-94
2022/05/29 00:08:47;;;;;;;9.30;4.70;;;;;;;;;;8457179;28;20036;-93
2022/05/29 00:12:50;;;;;;;6.15;3.15;;;;;;;;;;8462443;28;20047;-93
2022/05/29 00:16:54;;;;;;;6.55;3.30;;;;;;;;;;8464271;28;20052;-94
2022/05/29 00:21:00;;;;;;;7.30;2.92;;;;;;;;;;8446913;28;20080;-94
2022/05/29 00:25:07;;;;;;;7.20;2.80;;;;;;;;;;8467305;28;20130;-93
2022/05/29 00:29:10;;;;;;;7.60;3.45;;;;;;;;;;8455410;28;20047;-93
2022/05/29 00:33:15;;;;;;;5.72;2.95;;;;;;;;;;8455112;28;20408;-93
2022/05/29 00:37:17;;;;;;;5.00;3.20;;;;;;;;;;8461790;28;20047;-92
2022/05/29 00:41:25;;;;;;;6.22;2.95;;;;;;;;;;8457067;28;20051;-92
2022/05/29 00:45:32;;;;;;;5.90;2.95;;;;;;;;;;8461942;28;20047;-92
2022/05/29 00:49:39;;;;;;;4.75;2.65;;;;;;;;;;8464103;28;20524;-92
2022/05/29 00:53:41;;;;;;;7.35;2.92;;;;;;;;;;8468155;28;20127;-93
2022/05/29 00:57:47;;;;;;;5.88;2.97;;;;;;;;;;8463328;28;20089;-93
2022/05/29 01:01:51;;;;;;;8.68;4.10;;;;;;;;;;8465287;28;20040;-93
2022/05/29 01:05:56;;;;;;;5.20;3.28;;;;;;;;;;8471494;28;20043;-94
2022/05/29 01:10:02;;;;;;;6.93;3.17;;;;;;;;;;8462407;28;20042;-92
2022/05/29 01:14:17;;;;;;;7.28;3.05;;;;;;;;;;8466499;28;20104;-94
2022/05/29 01:18:28;;;;;;;5.53;3.20;;;;;;;;;;8464200;28;20044;-94
2022/05/29 01:23:10;;;;;;;5.45;3.53;;;;;;;;;;8460897;28;20047;-93
2022/05/29 01:27:30;;;;;;;6.68;3.63;;;;;;;;;;8466174;28;20044;-95
2022/05/29 01:31:44;;;;;;;4.53;3.08;;;;;;;;;;8473061;28;20460;-95
2022/05/29 01:35:54;;;;;;;6.22;2.92;;;;;;;;;;8439400;28;20059;-96
2022/05/29 01:40:06;;;;;;;8.20;3.08;;;;;;;;;;8460661;28;20467;-94
2022/05/29 01:44:11;;;;;;;;;;;;;;;;;;8456475;28;20052;-95
2022/05/29 01:48:20;;;;;;;5.40;3.03;;;;;;;;;;8470468;28;19941;-94
2022/05/29 01:52:32;;;;;;;8.20;3.00;;;;;;;;;;8477206;28;20044;-94
2022/05/29 01:56:41;;;;;;;4.75;2.67;;;;;;;;;;8480063;28;20043;-93
2022/05/29 02:00:47;;;;;;;4.85;2.65;;;;;;;;;;8466737;28;20054;-91
2022/05/29 02:04:56;;;;;;;6.32;3.00;;;;;;;;;;8479257;28;20048;-92
2022/05/29 02:09:06;;;;;;;5.80;2.90;;;;;;;;;;8482266;28;20063;-92
2022/05/29 02:13:15;;;;;;;4.22;2.55;;;;;;;;;;8466279;28;20051;-94
2022/05/29 02:17:21;;;;;;;5.63;3.15;;;;;;;;;;8456452;28;20464;-92
2022/05/29 02:21:32;;;;;;;4.40;2.67;;;;;;;;;;8474001;28;20069;-94
2022/05/29 02:25:37;;;;;;;8.68;3.60;;;;;;;;;;8461754;28;20419;-92
2022/05/29 02:29:42;;;;;;;9.02;2.72;;;;;;;;;;8468917;28;20052;-95
2022/05/29 02:33:53;;;;;;;6.60;2.70;;;;;;;;;;8470050;28;20048;-94
2022/05/29 02:38:06;;;;;;;5.20;2.50;;;;;;;;;;8459865;28;20057;-94
2022/05/29 02:42:15;;;;;;;;;;;;;;;;;;8450696;28;20143;-93
2022/05/29 02:46:27;;;;;;;6.03;2.50;;;;;;;;;;8461880;28;19945;-96
2022/05/29 02:50:37;;;;;;;7.28;3.13;;;;;;;;;;8458945;28;20108;-95
2022/05/29 02:54:42;;;;;;;4.78;2.30;;;;;;;;;;8457583;28;20079;-94
2022/05/29 02:58:48;;;;;;;6.40;2.80;;;;;;;;;;8460125;28;20043;-93
2022/05/29 03:03:05;;;;;;;4.05;2.40;;;;;;;;;;8449888;28;20048;-94
2022/05/29 03:07:18;;;;;;;4.15;2.88;;;;;;;;;;8463203;28;20459;-94
2022/05/29 03:11:33;;;;;;;5.95;3.40;;;;;;;;;;8446150;28;20427;-95
2022/05/29 03:15:49;;;;;;;7.85;2.92;;;;;;;;;;8448755;28;20040;-95
2022/05/29 03:20:01;;;;;;;10.35;4.20;;;;;;;;;;8436355;28;20070;-96
2022/05/29 03:24:14;;;;;;;24.27;8.02;;;;;;;;;;8467013;28;20039;-92
2022/05/29 03:28:23;;;;;;;17.85;9.13;;;;;;;;;;8467016;28;20134;-94
2022/05/29 03:32:27;;;;;;;103.00;43.20;;;;;;;;;;8475897;28;20495;-95
2022/05/29 03:36:30;;;;;;;13.30;7.35;;;;;;;;;;8468535;28;20095;-94
2022/05/29 03:40:34;;;;;;;9.65;5.38;;;;;;;;;;8470531;28;20475;-95
2022/05/29 03:44:38;;;;;;;9.82;4.78;;;;;;;;;;8466868;28;20448;-93
2022/05/29 03:48:41;;;;;;;9.65;4.65;;;;;;;;;;8466978;28;20063;-95
2022/05/29 03:52:44;;;;;;;6.18;3.72;;;;;;;;;;8462645;28;20048;-91
2022/05/29 03:56:47;;;;;;;7.50;3.55;;;;;;;;;;8449484;28;20044;-95
2022/05/29 04:00:52;;;;;;;8.07;3.50;;;;;;;;;;8480561;28;20043;-94
2022/05/29 04:04:55;;;;;;;7.68;3.63;;;;;;;;;;8455497;28;20047;-93
2022/05/29 04:13:44;;;;;;;7.88;3.20;;;;;;;;;;8367734;28;20131;-92
2022/05/29 04:17:49;;;;;;;8.35;3.58;;;;;;;;;;8409053;28;20130;-94
2022/05/29 04:21:53;;;;;;;6.18;2.83;;;;;;;;;;8478264;28;20043;-94
2022/05/29 04:26:00;;;;;;;8.50;3.70;;;;;;;;;;8477292;28;20100;-95
2022/05/29 04:30:03;;;;;;;6.10;2.80;;;;;;;;;;8478275;28;20040;-94
2022/05/29 04:34:08;;;;;;;4.35;2.90;;;;;;;;;;8474951;28;20074;-95
2022/05/29 04:38:12;;;;;;;8.57;3.20;;;;;;;;;;8459277;28;20114;-95
2022/05/29 04:42:15;;;;;;;4.47;2.63;;;;;;;;;;8475456;28;20048;-93
2022/05/29 04:46:18;;;;;;;5.40;2.45;;;;;;;;;;8455773;28;20084;-95
2022/05/29 04:50:22;;;;;;;13.70;2.90;;;;;;;;;;8458458;28;20067;-95
2022/05/29 04:54:27;;;;;;;4.68;2.38;;;;;;;;;;8465350;28;20053;-95
2022/05/29 04:58:31;;;;;;;4.68;2.42;;;;;;;;;;8459212;28;20134;-95
2022/05/29 05:02:35;;;;;;;6.70;2.33;;;;;;;;;;8450803;28;20044;-95
2022/05/29 05:06:40;;;;;;;9.27;2.40;;;;;;;;;;8457528;28;20539;-93
2022/05/29 05:10:46;;;;;;;6.68;3.15;;;;;;;;;;8475807;28;20069;-96
2022/05/29 05:14:55;;;;;;;8.32;2.55;;;;;;;;;;8481126;28;20044;-95
2022/05/29 05:19:01;;;;;;;6.18;3.00;;;;;;;;;;8432504;28;20725;-95
2022/05/29 05:23:10;;;;;;;7.00;2.80;;;;;;;;;;8436615;28;20055;-95
2022/05/29 05:27:14;;;;;;;6.32;2.53;;;;;;;;;;8430073;28;20028;-95
2022/05/29 05:31:18;;;;;;;5.63;2.78;;;;;;;;;;8427871;28;20044;-95
2022/05/29 05:35:21;;;;;;;6.82;2.55;;;;;;;;;;8431858;28;20052;-94
2022/05/29 05:39:28;;;;;;;4.90;2.88;;;;;;;;;;8437146;28;20048;-96
2022/05/29 05:43:39;;;;;;;6.32;2.67;;;;;;;;;;8429782;28;20063;-95
2022/05/29 05:47:43;;;;;;;5.97;2.72;;;;;;;;;;8410679;28;20075;-92
2022/05/29 05:51:46;;;;;;;6.03;2.65;;;;;;;;;;8433807;28;20070;-95
2022/05/29 05:55:53;;;;;;;6.28;2.70;;;;;;;;;;8432206;28;20385;-95
2022/05/29 05:59:58;;;;;;;7.47;2.90;;;;;;;;;;8434505;28;20051;-94
2022/05/29 06:04:02;;;;;;;8.02;2.45;;;;;;;;;;8425596;28;20100;-92
2022/05/29 06:08:06;;;;;;;6.53;2.60;;;;;;;;;;8432017;28;20123;-91
2022/05/29 06:12:11;;;;;;;5.70;2.25;;;;;;;;;;8433932;28;20048;-92
2022/05/29 06:16:18;;;;;;;8.15;2.38;;;;;;;;;;8417234;28;20552;-91
2022/05/29 06:20:32;;;;;;;4.68;2.30;;;;;;;;;;8427018;28;20047;-93
2022/05/29 06:24:46;;;;;;;6.93;3.00;;;;;;;;;;8430191;28;20055;-96
2022/05/29 06:29:15;;;;;;;7.03;2.70;;;;;;;;;;8434082;28;20411;-96
2022/05/29 06:33:34;;;;;;;5.90;2.47;;;;;;;;;;8432935;28;20044;-92
2022/05/29 06:38:03;;;;;;;6.93;2.40;;;;;;;;;;8430191;28;20060;-93
2022/05/29 06:46:59;;;;;;;10.57;2.47;;;;;;;;;;8426220;28;20059;-92
2022/05/29 06:51:22;;;;;;;8.15;2.30;;;;;;;;;;8430562;28;20056;-95
2022/05/29 06:56:21;;;;;;;9.20;2.78;;;;;;;;;;8414748;28;20036;-94
2022/05/29 07:09:47;;;;;;;5.28;1.98;;;;;;;;;;8421283;28;20519;-91
2022/05/29 07:14:09;;;;;;;8.15;2.50;;;;;;;;;;8420082;28;20048;-90
2022/05/29 07:18:26;;;;;;;3.72;1.75;;;;;;;;;;8411851;28;20575;-88
2022/05/29 07:22:56;;;;;;;6.70;2.40;;;;;;;;;;8419715;28;20048;-88
2022/05/29 07:27:27;;;;;;;5.90;2.38;;;;;;;;;;8410857;28;20047;-91
2022/05/29 07:32:00;;;;;;;6.22;2.30;;;;;;;;;;8415493;28;20438;-91
2022/05/29 07:36:26;;;;;;;7.85;2.22;;;;;;;;;;8424454;28;20074;-93
2022/05/29 07:40:42;;;;;;;5.90;2.22;;;;;;;;;;8422440;28;20484;-89
2022/05/29 07:45:07;;;;;;;4.82;2.20;;;;;;;;;;8417074;28;20036;-94
2022/05/29 07:49:30;;;;;;;7.25;2.15;;;;;;;;;;8423740;28;20072;-88
2022/05/29 07:54:04;;;;;;;4.22;1.95;;;;;;;;;;8420100;28;20552;-90
2022/05/29 07:58:27;;;;;;;4.35;1.73;;;;;;;;;;8419091;28;20569;-89
2022/05/29 08:02:43;;;;;;;3.90;2.17;;;;;;;;;;8407731;28;20603;-88
2022/05/29 08:07:04;;;;;;;4.05;1.67;;;;;;;;;;8410228;28;20143;-87
2022/05/29 08:11:23;;;;;;;3.80;1.60;;;;;;;;;;8408861;28;20044;-91
2022/05/29 08:15:38;;;;;;;3.22;1.70;;;;;;;;;;8408114;28;20040;-93
2022/05/29 08:20:00;;;;;;;4.82;1.80;;;;;;;;;;8403521;28;20040;-93
2022/05/29 08:33:43;;;;;;;4.82;1.60;;;;;;;;;;8404082;28;20487;-89
2022/05/29 08:37:49;;;;;;;5.70;1.67;;;;;;;;;;8424079;28;20040;-88
2022/05/29 08:42:12;;;;;;;4.43;1.25;;;;;;;;;;8415584;28;20050;-94
2022/05/29 08:46:47;;;;;;;6.18;2.00;;;;;;;;;;8421397;28;20059;-89
2022/05/29 08:51:22;;;;;;;4.68;1.88;;;;;;;;;;8418964;28;20087;-88
2022/05/29 08:55:45;;;;;;;5.75;1.75;;;;;;;;;;8410741;28;20127;-87
2022/05/29 08:59:56;;;;;;;5.18;1.60;;;;;;;;;;8406678;28;20118;-91
2022/05/29 09:04:16;;;;;;;4.68;2.00;;;;;;;;;;8404541;28;20040;-87
2022/05/29 09:09:00;;;;;;;8.20;2.75;;;;;;;;;;8411310;28;20052;-87
2022/05/29 09:13:25;;;;;;;6.22;2.42;;;;;;;;;;8411460;28;20052;-86
2022/05/29 09:17:43;;;;;;;5.50;2.13;;;;;;;;;;8429962;28;20130;-87
2022/05/29 09:22:10;;;;;;;;;;;;;;;;;;8429565;28;20472;-87
2022/05/29 09:26:26;;;;;;;5.30;1.92;;;;;;;;;;8428808;28;19973;-89
2022/05/29 09:30:57;;;;;;;3.47;1.45;;;;;;;;;;8409241;28;20181;-90
2022/05/29 09:35:40;;;;;;;3.30;1.50;;;;;;;;;;8420689;28;20040;-86
2022/05/29 09:40:02;;;;;;;4.50;1.50;;;;;;;;;;8428168;28;20126;-88
2022/05/29 09:44:28;;;;;;;3.28;1.50;;;;;;;;;;8419022;28;20495;-87
2022/05/29 09:53:04;;;;;;;4.13;1.48;;;;;;;;;;8414798;28;20055;-89
2022/05/29 09:57:18;;;;;;;6.15;1.75;;;;;;;;;;8417372;28;21051;-87
2022/05/29 10:01:46;;;;;;;4.25;1.80;;;;;;;;;;8395547;28;20054;-89
2022/05/29 10:05:52;;;;;;;4.18;1.50;;;;;;;;;;8400894;28;20536;-87
2022/05/29 10:10:06;;;;;;;4.43;1.73;;;;;;;;;;8400805;28;20293;-88
2022/05/29 10:14:38;;;;;;;3.78;1.33;;;;;;;;;;8413407;28;20541;-88
2022/05/29 10:18:44;;;;;;;5.28;1.70;;;;;;;;;;8421384;28;20109;-88
2022/05/29 10:22:53;;;;;;;3.30;1.58;;;;;;;;;;8410540;28;20036;-87
2022/05/29 10:27:06;;;;;;;4.10;1.35;;;;;;;;;;8421412;28;20064;-88
2022/05/29 10:31:20;;;;;;;2.45;1.17;;;;;;;;;;8426551;28;20055;-90
2022/05/29 10:35:28;;;;;;;2.97;1.40;;;;;;;;;;8417753;28;20101;-92
2022/05/29 10:39:34;;;;;;;3.22;1.30;;;;;;;;;;8425219;28;20044;-88
2022/05/29 10:43:41;;;;;;;7.53;1.50;;;;;;;;;;8417379;28;20521;-88
2022/05/29 10:48:01;;;;;;;3.40;1.27;;;;;;;;;;8425795;28;20057;-88
2022/05/29 10:52:33;;;;;;;3.50;1.50;;;;;;;;;;8422652;28;20055;-89
2022/05/29 10:57:02;;;;;;;2.25;1.40;;;;;;;;;;8413561;28;20480;-90
2022/05/29 11:05:50;;;;;;;3.40;1.40;;;;;;;;;;8401655;28;20067;-89
2022/05/29 11:10:07;;;;;;;4.70;1.30;;;;;;;;;;8417038;28;20534;-90
2022/05/29 11:14:31;;;;;;;5.25;1.40;;;;;;;;;;8426881;28;20400;-90
2022/05/29 11:18:51;;;;;;;1.83;1.00;;;;;;;;;;8428922;28;20055;-89
2022/05/29 11:23:08;;;;;;;3.73;1.73;;;;;;;;;;8430312;28;20046;-90
2022/05/29 11:27:26;;;;;;;2.40;1.40;;;;;;;;;;8428900;28;20050;-90
2022/05/29 11:31:45;;;;;;;4.10;1.30;;;;;;;;;;8430213;28;20044;-88
2022/05/29 11:36:02;;;;;;;2.20;1.30;;;;;;;;;;8430518;28;20048;-92
2022/05/29 11:40:14;;;;;;;2.15;1.15;;;;;;;;;;8429476;28;20042;-89
2022/05/29 11:44:25;;;;;;;3.63;1.20;;;;;;;;;;8429893;28;20048;-90
2022/05/29 11:53:00;;;;;;;2.10;1.20;;;;;;;;;;8388365;28;20136;-89
2022/05/29 11:57:10;;;;;;;1.73;1.30;;;;;;;;;;8429769;28;20479;-90
2022/05/29 12:01:19;;;;;;;3.10;1.30;;;;;;;;;;8429304;28;20131;-88
2022/05/29 12:05:30;;;;;;;2.53;1.40;;;;;;;;;;8421995;28;20068;-88
2022/05/29 12:09:39;;;;;;;1.58;1.13;;;;;;;;;;8429268;28;20044;-88
2022/05/29 12:13:51;;;;;;;3.42;1.38;;;;;;;;;;8429444;28;20389;-88
2022/05/29 12:17:59;;;;;;;5.13;1.70;;;;;;;;;;8429536;28;20036;-89
2022/05/29 12:22:07;;;;;;;7.38;1.58;;;;;;;;;;8434005;28;20282;-88
2022/05/29 12:26:17;;;;;;;3.00;1.45;;;;;;;;;;8435251;28;20476;-90
2022/05/29 12:30:26;;;;;;;;;;;;;;;;;;8434245;28;20488;-89
2022/05/29 12:34:34;;;;;;;3.22;1.45;;;;;;;;;;8435448;28;20284;-89
2022/05/29 12:38:54;;;;;;;3.05;1.55;;;;;;;;;;8435313;28;20036;-88
2022/05/29 12:43:29;;;;;;;4.22;1.52;;;;;;;;;;8430946;28;20088;-88
2022/05/29 12:47:57;;;;;;;2.15;1.48;;;;;;;;;;8434987;28;20058;-89
2022/05/29 12:52:17;;;;;;;3.00;1.38;;;;;;;;;;8434314;28;20056;-88
2022/05/29 12:56:37;;;;;;;3.83;1.60;;;;;;;;;;8434203;28;20127;-88
2022/05/29 13:01:10;;;;;;;2.42;1.35;;;;;;;;;;8434483;28;20075;-87
2022/05/29 13:05:36;;;;;;;3.78;1.60;;;;;;;;;;8404303;28;20074;-89
2022/05/29 13:10:09;;;;;;;4.93;1.77;;;;;;;;;;8419130;28;20043;-89
2022/05/29 13:25:11;;;;;;;3.53;1.20;;;;;;;;;;8415098;28;20393;-90
2022/05/29 13:29:40;;;;;;;3.28;1.60;;;;;;;;;;8421799;28;20040;-89
2022/05/29 13:34:00;;;;;;;2.72;1.50;;;;;;;;;;8412942;28;20051;-83
2022/05/29 13:38:04;;;;;;;3.55;1.73;;;;;;;;;;8416182;28;20101;-84
2022/05/29 13:42:48;;;;;;;2.88;1.30;;;;;;;;;;8423642;28;20044;-84
2022/05/29 13:47:33;;;;;;;2.33;1.38;;;;;;;;;;8417531;28;20063;-85
2022/05/29 13:51:46;;;;;;;2.10;1.50;;;;;;;;;;8412745;28;20537;-85
2022/05/29 13:56:13;;;;;;;2.50;1.50;;;;;;;;;;8414883;28;20492;-85
2022/05/29 14:04:52;;;;;;;2.88;1.30;;;;;;;;;;7621675;27;25213181;-85
2022/05/29 14:08:59;;;;;;;2.73;1.50;;;;;;;;;;8484157;27;20317;-87
2022/05/29 14:13:33;;;;;;;3.20;1.38;;;;;;;;;;8462313;27;20074;-85
2022/05/29 14:17:42;;;;;;;1.98;1.15;;;;;;;;;;8479010;27;20097;-83
2022/05/29 14:22:05;;;;;;;3.08;1.40;;;;;;;;;;8477248;27;20100;-88
2022/05/29 14:30:59;;;;;;;4.05;1.67;;;;;;;;;;8468587;27;20060;-87
2022/05/29 14:35:32;;;;;;;3.40;1.50;;;;;;;;;;8478254;27;20487;-85
2022/05/29 14:39:39;;;;;;;4.50;1.98;;;;;;;;;;8478269;27;20115;-86
2022/05/29 14:43:43;;;;;;;4.35;1.88;;;;;;;;;;8472464;27;20047;-89
2022/05/29 14:47:56;;;;;;;3.10;1.50;;;;;;;;;;8464535;27;20035;-86
2022/05/29 14:52:52;;;;;;;2.28;1.50;;;;;;;;;;8461311;27;20058;-84
2022/05/29 14:57:07;;;;;;;2.92;1.50;;;;;;;;;;8455703;27;20419;-86
2022/05/29 15:01:35;;;;;;;2.28;1.45;;;;;;;;;;8461339;27;20063;-86
2022/05/29 15:05:47;;;;;;;4.18;1.98;;;;;;;;;;8539912;27;20034;-83
2022/05/29 15:14:24;;;;;;;3.95;1.30;;;;;;;;;;8507127;27;20055;-85
2022/05/29 15:18:31;;;;;;;6.32;2.03;;;;;;;;;;8497965;27;20082;-85
2022/05/29 15:27:19;;;;;;;3.97;1.48;;;;;;;;;;8393336;27;20059;-86
2022/05/29 15:31:29;;;;;;;2.15;1.40;;;;;;;;;;8496755;27;20074;-86
2022/05/29 15:35:40;;;;;;;3.55;1.30;;;;;;;;;;8497627;27;20058;-85
2022/05/29 15:39:53;;;;;;;6.17;2.17;;;;;;;;;;8497701;27;20059;-86
2022/05/29 15:44:08;;;;;;;3.50;1.60;;;;;;;;;;8497084;27;20047;-86
2022/05/29 15:48:34;;;;;;;3.42;1.50;;;;;;;;;;8497463;27;20047;-85
2022/05/29 15:52:53;;;;;;;3.95;1.50;;;;;;;;;;8525837;27;20346;-85
2022/05/29 15:57:05;;;;;;;3.72;1.40;;;;;;;;;;8529928;27;20047;-85
2022/05/29 16:01:11;;;;;;;2.53;1.30;;;;;;;;;;8529826;27;20046;-85
2022/05/29 16:05:20;;;;;;;5.32;1.50;;;;;;;;;;8529401;27;20138;-86
2022/05/29 16:09:26;;;;;;;4.47;1.77;;;;;;;;;;8516001;27;20038;-87
2022/05/29 16:13:44;;;;;;;4.38;1.35;;;;;;;;;;8498356;27;20475;-86
2022/05/29 16:17:56;;;;;;;2.50;1.15;;;;;;;;;;8511575;27;20498;-87
2022/05/29 16:22:37;;;;;;;2.97;1.50;;;;;;;;;;8504646;27;20068;-88
2022/05/29 16:26:47;;;;;;;2.60;1.65;;;;;;;;;;8526727;27;20039;-87
2022/05/29 16:30:56;;;;;;;3.30;1.43;;;;;;;;;;8521202;27;20069;-88
2022/05/29 16:35:05;;;;;;;2.03;1.40;;;;;;;;;;8500446;27;20039;-87
2022/05/29 16:48:10;;;;;;;4.20;1.67;;;;;;;;;;8500231;27;20043;-88
2022/05/29 16:52:23;;;;;;;4.57;2.33;;;;;;;;;;8500130;27;20047;-88
2022/05/29 16:56:44;;;;;;;5.25;3.05;;;;;;;;;;8499931;27;20142;-86
2022/05/29 17:00:55;;;;;;;5.23;1.63;;;;;;;;;;8528572;27;20051;-88
2022/05/29 17:05:03;;;;;;;4.85;1.50;;;;;;;;;;8532138;27;20505;-87
2022/05/29 17:09:20;;;;;;;3.00;1.35;;;;;;;;;;8532345;27;20058;-87
2022/05/29 17:13:26;;;;;;;3.13;1.50;;;;;;;;;;8532372;27;20051;-88
2022/05/29 17:17:30;;;;;;;2.03;1.30;;;;;;;;;;8532146;27;20110;-88
2022/05/29 17:21:38;;;;;;;22.15;7.63;;;;;;;;;;8531723;27;20050;-88
2022/05/29 17:25:52;;;;;;;2.83;1.63;;;;;;;;;;8532043;27;20045;-89
2022/05/29 17:30:12;;;;;;;3.67;1.80;;;;;;;;;;8531878;27;20099;-89
2022/05/29 17:34:32;;;;;;;4.28;1.88;;;;;;;;;;8531808;27;20042;-89
2022/05/29 17:38:48;;;;;;;5.60;1.67;;;;;;;;;;8531366;27;20043;-89
2022/05/29 17:43:26;;;;;;;5.30;1.85;;;;;;;;;;8531400;27;20062;-89
2022/05/29 17:47:57;;;;;;;4.88;1.73;;;;;;;;;;8491360;27;21989;-89
2022/05/29 17:52:06;;;;;;;2.25;1.60;;;;;;;;;;8505993;27;20406;-89
2022/05/29 17:56:25;;;;;;;2.88;1.90;;;;;;;;;;8510024;27;20117;-89
2022/05/29 18:00:31;;;;;;;3.80;2.03;;;;;;;;;;8516645;27;20071;-89
2022/05/29 18:05:04;;;;;;;14.38;5.85;;;;;;;;;;8497877;27;20059;-88
2022/05/29 18:09:19;;;;;;;9.85;5.28;;;;;;;;;;8499202;27;20691;-89
2022/05/29 18:13:39;;;;;;;6.90;2.83;;;;;;;;;;8506781;27;20043;-88
2022/05/29 18:17:43;;;;;;;6.57;2.63;;;;;;;;;;8513051;27;20047;-89
2022/05/29 18:21:48;;;;;;;8.43;5.22;;;;;;;;;;8521319;27;20049;-89
2022/05/29 18:25:54;;;;;;;20.27;11.93;;;;;;;;;;8525216;27;20035;-88
2022/05/29 18:29:57;;;;;;;9.45;4.53;;;;;;;;;;8519857;27;20077;-89
2022/05/29 18:34:00;;;;;;;7.18;3.88;;;;;;;;;;8503040;27;20737;-92
2022/05/29 18:38:05;;;;;;;9.23;4.68;;;;;;;;;;8507582;27;20046;-89
2022/05/29 18:42:09;;;;;;;11.13;6.47;;;;;;;;;;8518855;27;20390;-89
2022/05/29 18:46:20;;;;;;;10.38;5.18;;;;;;;;;;8520103;27;20477;-90
2022/05/29 18:50:27;;;;;;;40.22;36.00;;;;;;;;;;8531673;27;20125;-88
2022/05/29 18:54:35;;;;;;;12.50;6.18;;;;;;;;;;8524398;27;20079;-89
2022/05/29 18:58:44;;;;;;;13.00;7.05;;;;;;;;;;8519426;27;20038;-89
2022/05/29 19:02:56;;;;;;;46.65;16.15;;;;;;;;;;8513009;27;20069;-91
2022/05/29 19:07:16;;;;;;;17.58;7.97;;;;;;;;;;8516637;27;20127;-92
2022/05/29 19:11:23;;;;;;;21.10;7.57;;;;;;;;;;8528001;27;20065;-89
2022/05/29 19:15:27;;;;;;;13.15;5.15;;;;;;;;;;8517072;27;20091;-89
2022/05/29 19:19:31;;;;;;;6.50;3.75;;;;;;;;;;8521914;27;20092;-90
2022/05/29 19:23:51;;;;;;;7.25;3.35;;;;;;;;;;8534594;27;20043;-90
2022/05/29 19:27:58;;;;;;;7.28;3.05;;;;;;;;;;8520766;27;20047;-89
2022/05/29 19:32:04;;;;;;;9.73;3.70;;;;;;;;;;8502899;27;20080;-89
2022/05/29 19:36:12;;;;;;;18.33;6.32;;;;;;;;;;8507850;27;20386;-89
2022/05/29 19:40:21;;;;;;;10.18;4.03;;;;;;;;;;8535377;27;20038;-89
2022/05/29 19:44:28;;;;;;;6.80;3.70;;;;;;;;;;8535285;27;20038;-89
2022/05/29 19:48:32;;;;;;;11.45;4.70;;;;;;;;;;8502253;27;20576;-89
2022/05/29 19:52:36;;;;;;;5.75;3.10;;;;;;;;;;8503742;27;20040;-92
2022/05/29 19:56:39;;;;;;;9.27;3.85;;;;;;;;;;8501945;27;20043;-89
2022/05/29 20:01:19;;;;;;;10.18;3.67;;;;;;;;;;8506811;27;20088;-90
2022/05/29 20:05:23;;;;;;;6.03;3.15;;;;;;;;;;8514164;27;20398;-89
2022/05/29 20:09:25;;;;;;;23.25;8.52;;;;;;;;;;8525264;27;20418;-89
2022/05/29 20:13:28;;;;;;;6.15;2.90;;;;;;;;;;8501321;27;20043;-89
2022/05/29 20:17:34;;;;;;;6.97;2.88;;;;;;;;;;8501248;27;20121;-88
2022/05/29 20:21:40;;;;;;;10.38;2.78;;;;;;;;;;8501218;27;20398;-88
2022/05/29 20:25:43;;;;;;;7.32;2.55;;;;;;;;;;8527548;27;20050;-88
2022/05/29 20:29:47;;;;;;;9.25;3.20;;;;;;;;;;8513135;27;20054;-88
2022/05/29 20:33:53;;;;;;;4.95;2.63;;;;;;;;;;8531029;27;20046;-88
2022/05/29 20:37:59;;;;;;;11.35;4.18;;;;;;;;;;8531047;27;20475;-89
2022/05/29 20:42:02;;;;;;;6.93;3.17;;;;;;;;;;8532481;27;20039;-89
2022/05/29 20:50:31;;;;;;;5.32;2.78;;;;;;;;;;8533058;27;20046;-88
2022/05/29 20:54:35;;;;;;;6.07;3.03;;;;;;;;;;8532902;27;20051;-89
2022/05/29 20:58:38;;;;;;;8.38;3.13;;;;;;;;;;8509475;27;20043;-88
2022/05/29 21:02:43;;;;;;;5.15;2.92;;;;;;;;;;8499474;27;20055;-90
2022/05/29 21:06:47;;;;;;;5.32;3.03;;;;;;;;;;8499665;27;20417;-89
2022/05/29 21:10:50;;;;;;;10.05;5.20;;;;;;;;;;8499073;27;20050;-89
2022/05/29 21:14:53;;;;;;;9.60;3.53;;;;;;;;;;8499452;27;20047;-88
2022/05/29 21:18:56;;;;;;;38.75;11.60;;;;;;;;;;8499322;27;20050;-90
2022/05/29 21:23:00;;;;;;;13.07;6.43;;;;;;;;;;8499097;27;20058;-91
2022/05/29 21:27:04;;;;;;;9.82;4.97;;;;;;;;;;8499191;27;20066;-89
2022/05/29 21:31:09;;;;;;;9.10;5.10;;;;;;;;;;8499086;27;20480;-89
2022/05/29 21:35:12;;;;;;;10.18;4.65;;;;;;;;;;8498912;27;20108;-88
2022/05/29 21:39:18;;;;;;;11.35;4.88;;;;;;;;;;8498858;27;20397;-90
2022/05/29 21:43:21;;;;;;;10.57;5.07;;;;;;;;;;8498580;27;20130;-89
2022/05/29 21:47:23;;;;;;;7.43;4.38;;;;;;;;;;8498512;27;20043;-89
2022/05/29 21:51:26;;;;;;;9.23;4.82;;;;;;;;;;8500559;27;20043;-89
2022/05/29 21:55:30;;;;;;;10.52;4.97;;;;;;;;;;8498441;27;20051;-89
2022/05/29 21:59:33;;;;;;;7.72;4.05;;;;;;;;;;8498319;27;20494;-89
2022/05/29 22:03:36;;;;;;;10.35;4.40;;;;;;;;;;8497955;27;20063;-89
2022/05/29 22:07:39;;;;;;;8.35;4.32;;;;;;;;;;8498193;27;20044;-88
2022/05/29 22:11:43;;;;;;;9.38;4.20;;;;;;;;;;8529578;27;20099;-89
2022/05/29 22:15:46;;;;;;;7.70;4.28;;;;;;;;;;8531016;27;20115;-88
2022/05/29 22:19:50;;;;;;;7.00;4.30;;;;;;;;;;8530928;27;20521;-90
2022/05/29 22:23:54;;;;;;;10.88;4.28;;;;;;;;;;8529696;27;20542;-92
2022/05/29 22:27:58;;;;;;;7.03;4.18;;;;;;;;;;8511807;27;20043;-90
2022/05/29 22:32:07;;;;;;;7.30;4.25;;;;;;;;;;8504820;27;20083;-90
2022/05/29 22:36:11;;;;;;;9.45;4.38;;;;;;;;;;8528227;27;20038;-91
2022/05/29 22:40:17;;;;;;;8.48;4.40;;;;;;;;;;8514329;27;20047;-90
2022/05/29 22:44:21;;;;;;;8.65;4.80;;;;;;;;;;8534445;27;20125;-91
2022/05/29 22:48:38;;;;;;;8.32;5.00;;;;;;;;;;8537178;27;20069;-90
2022/05/29 22:52:45;;;;;;;11.15;4.97;;;;;;;;;;8519336;27;20050;-90
2022/05/29 22:56:49;;;;;;;12.57;5.57;;;;;;;;;;8529106;27;20125;-90
2022/05/29 23:00:53;;;;;;;9.38;5.10;;;;;;;;;;8537024;27;20117;-92
2022/05/29 23:04:56;;;;;;;15.07;6.57;;;;;;;;;;8516288;27;20853;-91
2022/05/29 23:08:59;;;;;;;10.63;5.70;;;;;;;;;;8526286;27;20131;-91
2022/05/29 23:17:09;;;;;;;10.40;6.82;;;;;;;;;;8366666;28;20055;-77
2022/05/29 23:21:12;;;;;;;12.80;5.95;;;;;;;;;;8369496;28;20052;-76
2022/05/29 23:25:17;;;;;;;10.43;5.38;;;;;;;;;;8368243;28;20128;-77
2022/05/29 23:30:05;;;;;;;11.82;5.55;;;;;;;;;;8368723;28;20492;-77
2022/05/29 23:33:43;;;;;;;11.40;5.70;;;;;;;;;;8362799;28;20036;-77
2022/05/29 23:37:47;;;;;;;10.30;5.82;;;;;;;;;;8348488;28;20037;-77
2022/05/29 23:46:14;;;;;;;9.85;5.95;;;;;;;;;;8363633;28;20049;-77
2022/05/29 23:50:18;;;;;;;9.10;5.15;;;;;;;;;;8360138;28;20098;-77
2022/05/29 23:54:21;;;;;;;8.50;5.10;;;;;;;;;;8358023;28;20049;-77
2022/05/29 23:58:23;;;;;;;8.43;4.90;;;;;;;;;;8361564;28;20037;-77
